sensor_id;sensor_type;location;lat;lon;timestamp;P1;durP1;ratioP1;P2;durP2;ratioP2
49340;SDS011;35209;51.050;13.678;2023-04-24T00:02:09;6.50;;;6.03;;
49340;SDS011;35209;51.050;13.678;2023-04-24T00:07:12;6.60;;;6.07;;
49340;SDS011;35209;51.050;13.678;2023-04-24T00:12:14;5.57;;;4.95;;
49340;SDS011;35209;51.050;13.678;2023-04-24T00:17:16;6.72;;;4.75;;
49340;SDS011;35209;51.050;13.678;2023-04-24T00:22:21;4.22;;;3.92;;
49340;SDS011;35209;51.050;13.678;2023-04-24T00:27:23;4.70;;;4.35;;
49340;SDS011;35209;51.050;13.678;2023-04-24T00:32:25;4.00;;;3.70;;
49340;SDS011;35209;51.050;13.678;2023-04-24T00:37:26;4.38;;;4.07;;
49340;SDS011;35209;51.050;13.678;2023-04-24T00:42:28;4.03;;;3.72;;
49340;SDS011;35209;51.050;13.678;2023-04-24T00:47:30;3.92;;;3.65;;
49340;SDS011;35209;51.050;13.678;2023-04-24T00:52:34;4.70;;;4.30;;
49340;SDS011;35209;51.050;13.678;2023-04-24T00:57:36;4.82;;;4.40;;
49340;SDS011;35209;51.050;13.678;2023-04-24T01:02:39;4.50;;;4.10;;
49340;SDS011;35209;51.050;13.678;2023-04-24T01:07:46;5.57;;;4.40;;
49340;SDS011;35209;51.050;13.678;2023-04-24T01:12:50;4.75;;;4.45;;
49340;SDS011;35209;51.050;13.678;2023-04-24T01:17:53;4.65;;;4.35;;
49340;SDS011;35209;51.050;13.678;2023-04-24T01:22:55;5.13;;;4.72;;
49340;SDS011;35209;51.050;13.678;2023-04-24T01:27:58;4.72;;;4.43;;
49340;SDS011;35209;51.050;13.678;2023-04-24T01:33:00;4.97;;;4.57;;
49340;SDS011;35209;51.050;13.678;2023-04-24T01:38:02;6.35;;;5.85;;
49340;SDS011;35209;51.050;13.678;2023-04-24T01:43:04;5.82;;;5.32;;
49340;SDS011;35209;51.050;13.678;2023-04-24T01:48:05;5.20;;;4.72;;
49340;SDS011;35209;51.050;13.678;2023-04-24T01:53:07;5.35;;;4.97;;
49340;SDS011;35209;51.050;13.678;2023-04-24T01:58:10;5.03;;;4.63;;
49340;SDS011;35209;51.050;13.678;2023-04-24T02:03:11;5.93;;;5.45;;
49340;SDS011;35209;51.050;13.678;2023-04-24T02:08:13;5.75;;;5.35;;
49340;SDS011;35209;51.050;13.678;2023-04-24T02:13:15;4.63;;;4.32;;
49340;SDS011;35209;51.050;13.678;2023-04-24T02:18:17;5.15;;;4.75;;
49340;SDS011;35209;51.050;13.678;2023-04-24T02:23:19;4.88;;;4.57;;
49340;SDS011;35209;51.050;13.678;2023-04-24T02:28:21;4.40;;;4.10;;
49340;SDS011;35209;51.050;13.678;2023-04-24T02:33:24;5.85;;;5.15;;
49340;SDS011;35209;51.050;13.678;2023-04-24T02:38:26;5.22;;;4.72;;
49340;SDS011;35209;51.050;13.678;2023-04-24T02:43:27;5.88;;;5.43;;
49340;SDS011;35209;51.050;13.678;2023-04-24T02:48:29;5.22;;;4.88;;
49340;SDS011;35209;51.050;13.678;2023-04-24T02:53:31;5.00;;;4.55;;
49340;SDS011;35209;51.050;13.678;2023-04-24T02:58:33;4.18;;;3.88;;
49340;SDS011;35209;51.050;13.678;2023-04-24T03:03:35;6.00;;;5.60;;
49340;SDS011;35209;51.050;13.678;2023-04-24T03:08:37;5.35;;;4.95;;
49340;SDS011;35209;51.050;13.678;2023-04-24T03:13:39;5.28;;;4.88;;
49340;SDS011;35209;51.050;13.678;2023-04-24T03:18:41;6.13;;;5.63;;
49340;SDS011;35209;51.050;13.678;2023-04-24T03:23:44;5.80;;;5.40;;
49340;SDS011;35209;51.050;13.678;2023-04-24T03:28:46;6.47;;;5.78;;
49340;SDS011;35209;51.050;13.678;2023-04-24T03:33:47;6.07;;;5.57;;
49340;SDS011;35209;51.050;13.678;2023-04-24T03:38:50;5.55;;;4.80;;
49340;SDS011;35209;51.050;13.678;2023-04-24T03:44:02;4.60;;;3.40;;
49340;SDS011;35209;51.050;13.678;2023-04-24T03:49:05;4.85;;;0.90;;
49340;SDS011;35209;51.050;13.678;2023-04-24T03:54:10;1.02;;;0.55;;
49340;SDS011;35209;51.050;13.678;2023-04-24T03:59:14;1.13;;;0.52;;
49340;SDS011;35209;51.050;13.678;2023-04-24T04:04:19;1.63;;;0.73;;
49340;SDS011;35209;51.050;13.678;2023-04-24T04:09:21;2.25;;;0.50;;
49340;SDS011;35209;51.050;13.678;2023-04-24T04:14:23;1.42;;;0.47;;
49340;SDS011;35209;51.050;13.678;2023-04-24T04:19:25;0.98;;;0.70;;
49340;SDS011;35209;51.050;13.678;2023-04-24T04:24:28;1.00;;;0.70;;
49340;SDS011;35209;51.050;13.678;2023-04-24T04:29:32;1.90;;;0.50;;
49340;SDS011;35209;51.050;13.678;2023-04-24T04:34:35;1.45;;;0.70;;
49340;SDS011;35209;51.050;13.678;2023-04-24T04:39:41;0.75;;;0.50;;
49340;SDS011;35209;51.050;13.678;2023-04-24T04:44:56;2.17;;;0.75;;
49340;SDS011;35209;51.050;13.678;2023-04-24T04:50:09;1.10;;;0.50;;
49340;SDS011;35209;51.050;13.678;2023-04-24T04:55:12;0.70;;;0.60;;
49340;SDS011;35209;51.050;13.678;2023-04-24T05:00:37;1.38;;;0.60;;
49340;SDS011;35209;51.050;13.678;2023-04-24T05:06:01;0.77;;;0.50;;
49340;SDS011;35209;51.050;13.678;2023-04-24T05:11:07;0.80;;;0.38;;
49340;SDS011;35209;51.050;13.678;2023-04-24T05:16:10;1.02;;;0.65;;
49340;SDS011;35209;51.050;13.678;2023-04-24T05:21:13;0.47;;;0.47;;
49340;SDS011;35209;51.050;13.678;2023-04-24T05:26:18;1.85;;;0.70;;
49340;SDS011;35209;51.050;13.678;2023-04-24T05:31:20;1.50;;;0.70;;
49340;SDS011;35209;51.050;13.678;2023-04-24T05:36:23;1.17;;;1.00;;
49340;SDS011;35209;51.050;13.678;2023-04-24T05:41:27;2.28;;;0.60;;
49340;SDS011;35209;51.050;13.678;2023-04-24T05:46:28;1.65;;;0.63;;
49340;SDS011;35209;51.050;13.678;2023-04-24T05:51:30;0.57;;;0.40;;
49340;SDS011;35209;51.050;13.678;2023-04-24T05:56:33;0.70;;;0.60;;
49340;SDS011;35209;51.050;13.678;2023-04-24T06:01:37;2.72;;;1.70;;
49340;SDS011;35209;51.050;13.678;2023-04-24T06:06:45;0.88;;;0.50;;
49340;SDS011;35209;51.050;13.678;2023-04-24T06:11:49;2.20;;;0.50;;
49340;SDS011;35209;51.050;13.678;2023-04-24T06:16:57;1.05;;;0.50;;
49340;SDS011;35209;51.050;13.678;2023-04-24T06:22:12;1.58;;;0.57;;
49340;SDS011;35209;51.050;13.678;2023-04-24T06:27:15;1.92;;;0.45;;
49340;SDS011;35209;51.050;13.678;2023-04-24T06:32:16;1.80;;;0.45;;
49340;SDS011;35209;51.050;13.678;2023-04-24T06:37:19;1.45;;;0.60;;
49340;SDS011;35209;51.050;13.678;2023-04-24T06:42:21;0.80;;;0.50;;
49340;SDS011;35209;51.050;13.678;2023-04-24T06:47:25;1.10;;;0.43;;
49340;SDS011;35209;51.050;13.678;2023-04-24T06:52:26;0.65;;;0.40;;
49340;SDS011;35209;51.050;13.678;2023-04-24T06:57:28;0.88;;;0.40;;
49340;SDS011;35209;51.050;13.678;2023-04-24T07:02:31;0.88;;;0.50;;
49340;SDS011;35209;51.050;13.678;2023-04-24T07:07:32;1.80;;;0.50;;
49340;SDS011;35209;51.050;13.678;2023-04-24T07:12:35;0.68;;;0.32;;
49340;SDS011;35209;51.050;13.678;2023-04-24T07:17:37;2.05;;;0.40;;
49340;SDS011;35209;51.050;13.678;2023-04-24T07:22:40;0.43;;;0.40;;
49340;SDS011;35209;51.050;13.678;2023-04-24T07:27:41;1.77;;;0.50;;
49340;SDS011;35209;51.050;13.678;2023-04-24T07:32:43;0.95;;;0.38;;
49340;SDS011;35209;51.050;13.678;2023-04-24T07:37:45;0.75;;;0.20;;
49340;SDS011;35209;51.050;13.678;2023-04-24T07:42:47;1.20;;;0.50;;
49340;SDS011;35209;51.050;13.678;2023-04-24T07:47:52;0.80;;;0.40;;
49340;SDS011;35209;51.050;13.678;2023-04-24T07:52:54;1.27;;;0.50;;
49340;SDS011;35209;51.050;13.678;2023-04-24T07:57:56;1.17;;;0.30;;
49340;SDS011;35209;51.050;13.678;2023-04-24T08:02:57;2.08;;;0.38;;
49340;SDS011;35209;51.050;13.678;2023-04-24T08:07:59;1.98;;;0.40;;
49340;SDS011;35209;51.050;13.678;2023-04-24T08:13:01;1.80;;;0.35;;
49340;SDS011;35209;51.050;13.678;2023-04-24T08:18:03;1.17;;;0.38;;
49340;SDS011;35209;51.050;13.678;2023-04-24T08:23:06;1.05;;;0.30;;
49340;SDS011;35209;51.050;13.678;2023-04-24T08:28:08;0.77;;;0.30;;
49340;SDS011;35209;51.050;13.678;2023-04-24T08:33:10;0.60;;;0.30;;
49340;SDS011;35209;51.050;13.678;2023-04-24T08:38:12;1.70;;;0.50;;
49340;SDS011;35209;51.050;13.678;2023-04-24T08:43:13;1.60;;;0.50;;
49340;SDS011;35209;51.050;13.678;2023-04-24T08:48:17;2.47;;;0.50;;
49340;SDS011;35209;51.050;13.678;2023-04-24T08:53:31;1.50;;;0.63;;
49340;SDS011;35209;51.050;13.678;2023-04-24T08:58:34;0.55;;;0.30;;
49340;SDS011;35209;51.050;13.678;2023-04-24T09:03:36;1.05;;;0.38;;
49340;SDS011;35209;51.050;13.678;2023-04-24T09:08:40;1.45;;;0.40;;
49340;SDS011;35209;51.050;13.678;2023-04-24T09:13:42;0.82;;;0.32;;
49340;SDS011;35209;51.050;13.678;2023-04-24T09:18:44;0.50;;;0.28;;
49340;SDS011;35209;51.050;13.678;2023-04-24T09:23:47;0.70;;;0.30;;
49340;SDS011;35209;51.050;13.678;2023-04-24T09:28:59;0.82;;;0.30;;
49340;SDS011;35209;51.050;13.678;2023-04-24T09:34:02;1.23;;;0.30;;
49340;SDS011;35209;51.050;13.678;2023-04-24T09:39:09;1.40;;;0.30;;
49340;SDS011;35209;51.050;13.678;2023-04-24T09:49:25;0.82;;;0.40;;
49340;SDS011;35209;51.050;13.678;2023-04-24T09:54:28;1.35;;;0.35;;
49340;SDS011;35209;51.050;13.678;2023-04-24T09:59:31;1.35;;;0.40;;
49340;SDS011;35209;51.050;13.678;2023-04-24T10:04:37;1.40;;;0.30;;
49340;SDS011;35209;51.050;13.678;2023-04-24T10:10:04;1.85;;;0.30;;
49340;SDS011;35209;51.050;13.678;2023-04-24T10:15:25;1.50;;;0.38;;
49340;SDS011;35209;51.050;13.678;2023-04-24T10:20:40;0.68;;;0.30;;
49340;SDS011;35209;51.050;13.678;2023-04-24T10:25:49;1.42;;;0.30;;
49340;SDS011;35209;51.050;13.678;2023-04-24T10:30:56;2.58;;;0.73;;
49340;SDS011;35209;51.050;13.678;2023-04-24T10:36:14;0.80;;;0.30;;
49340;SDS011;35209;51.050;13.678;2023-04-24T10:41:26;0.82;;;0.30;;
49340;SDS011;35209;51.050;13.678;2023-04-24T10:51:50;0.50;;;0.38;;
49340;SDS011;35209;51.050;13.678;2023-04-24T11:02:37;1.23;;;0.40;;
49340;SDS011;35209;51.050;13.678;2023-04-24T11:13:15;0.35;;;0.30;;
49340;SDS011;35209;51.050;13.678;2023-04-24T11:18:22;0.75;;;0.30;;
49340;SDS011;35209;51.050;13.678;2023-04-24T11:23:24;1.45;;;0.35;;
49340;SDS011;35209;51.050;13.678;2023-04-24T11:28:27;1.15;;;0.43;;
49340;SDS011;35209;51.050;13.678;2023-04-24T11:33:29;0.63;;;0.30;;
49340;SDS011;35209;51.050;13.678;2023-04-24T11:38:33;4.03;;;0.30;;
49340;SDS011;35209;51.050;13.678;2023-04-24T11:43:34;1.33;;;0.30;;
49340;SDS011;35209;51.050;13.678;2023-04-24T11:48:36;1.48;;;0.40;;
49340;SDS011;35209;51.050;13.678;2023-04-24T11:53:41;1.20;;;0.38;;
49340;SDS011;35209;51.050;13.678;2023-04-24T11:58:44;1.42;;;0.45;;
49340;SDS011;35209;51.050;13.678;2023-04-24T12:03:47;0.57;;;0.40;;
49340;SDS011;35209;51.050;13.678;2023-04-24T12:08:52;0.93;;;0.30;;
49340;SDS011;35209;51.050;13.678;2023-04-24T12:14:11;1.30;;;0.30;;
49340;SDS011;35209;51.050;13.678;2023-04-24T12:19:17;1.08;;;0.30;;
49340;SDS011;35209;51.050;13.678;2023-04-24T12:24:21;1.58;;;0.40;;
49340;SDS011;35209;51.050;13.678;2023-04-24T12:29:23;0.55;;;0.40;;
49340;SDS011;35209;51.050;13.678;2023-04-24T12:34:25;2.22;;;0.40;;
49340;SDS011;35209;51.050;13.678;2023-04-24T12:39:27;2.55;;;0.45;;
49340;SDS011;35209;51.050;13.678;2023-04-24T12:44:29;0.30;;;0.28;;
49340;SDS011;35209;51.050;13.678;2023-04-24T12:49:32;0.43;;;0.40;;
49340;SDS011;35209;51.050;13.678;2023-04-24T12:54:34;1.08;;;0.38;;
49340;SDS011;35209;51.050;13.678;2023-04-24T12:59:36;1.40;;;0.50;;
49340;SDS011;35209;51.050;13.678;2023-04-24T13:04:37;1.20;;;0.40;;
49340;SDS011;35209;51.050;13.678;2023-04-24T13:09:40;1.33;;;0.35;;
49340;SDS011;35209;51.050;13.678;2023-04-24T13:14:42;1.33;;;0.50;;
49340;SDS011;35209;51.050;13.678;2023-04-24T13:19:44;0.70;;;0.50;;
49340;SDS011;35209;51.050;13.678;2023-04-24T13:24:47;1.52;;;0.47;;
49340;SDS011;35209;51.050;13.678;2023-04-24T13:29:52;1.85;;;0.52;;
49340;SDS011;35209;51.050;13.678;2023-04-24T13:34:53;1.40;;;0.57;;
49340;SDS011;35209;51.050;13.678;2023-04-24T13:39:55;0.82;;;0.30;;
49340;SDS011;35209;51.050;13.678;2023-04-24T13:44:57;0.47;;;0.30;;
49340;SDS011;35209;51.050;13.678;2023-04-24T13:49:58;1.60;;;0.45;;
49340;SDS011;35209;51.050;13.678;2023-04-24T13:55:00;0.85;;;0.40;;
49340;SDS011;35209;51.050;13.678;2023-04-24T14:00:02;0.30;;;0.20;;
49340;SDS011;35209;51.050;13.678;2023-04-24T14:05:07;2.65;;;0.60;;
49340;SDS011;35209;51.050;13.678;2023-04-24T14:10:09;1.23;;;0.50;;
49340;SDS011;35209;51.050;13.678;2023-04-24T14:15:11;1.40;;;0.50;;
49340;SDS011;35209;51.050;13.678;2023-04-24T14:20:14;1.25;;;0.50;;
49340;SDS011;35209;51.050;13.678;2023-04-24T14:25:16;0.93;;;0.60;;
49340;SDS011;35209;51.050;13.678;2023-04-24T14:30:18;0.50;;;0.38;;
49340;SDS011;35209;51.050;13.678;2023-04-24T14:35:20;1.15;;;0.77;;
49340;SDS011;35209;51.050;13.678;2023-04-24T14:40:22;1.98;;;0.47;;
49340;SDS011;35209;51.050;13.678;2023-04-24T14:45:43;1.27;;;0.50;;
49340;SDS011;35209;51.050;13.678;2023-04-24T14:50:45;0.70;;;0.40;;
49340;SDS011;35209;51.050;13.678;2023-04-24T14:55:47;3.40;;;0.60;;
49340;SDS011;35209;51.050;13.678;2023-04-24T15:00:48;0.55;;;0.50;;
49340;SDS011;35209;51.050;13.678;2023-04-24T15:05:55;1.35;;;0.47;;
49340;SDS011;35209;51.050;13.678;2023-04-24T15:10:58;2.05;;;0.50;;
49340;SDS011;35209;51.050;13.678;2023-04-24T15:15:59;0.77;;;0.40;;
49340;SDS011;35209;51.050;13.678;2023-04-24T15:21:01;1.55;;;0.50;;
49340;SDS011;35209;51.050;13.678;2023-04-24T15:26:03;0.73;;;0.30;;
49340;SDS011;35209;51.050;13.678;2023-04-24T15:31:05;1.45;;;0.40;;
49340;SDS011;35209;51.050;13.678;2023-04-24T15:36:07;1.77;;;0.60;;
49340;SDS011;35209;51.050;13.678;2023-04-24T15:41:09;0.98;;;0.50;;
49340;SDS011;35209;51.050;13.678;2023-04-24T15:46:12;0.63;;;0.50;;
49340;SDS011;35209;51.050;13.678;2023-04-24T15:51:14;0.85;;;0.60;;
49340;SDS011;35209;51.050;13.678;2023-04-24T15:56:15;0.50;;;0.50;;
49340;SDS011;35209;51.050;13.678;2023-04-24T16:01:17;2.08;;;0.70;;
49340;SDS011;35209;51.050;13.678;2023-04-24T16:06:19;2.08;;;0.60;;
49340;SDS011;35209;51.050;13.678;2023-04-24T16:11:21;0.75;;;0.50;;
49340;SDS011;35209;51.050;13.678;2023-04-24T16:16:23;0.80;;;0.80;;
49340;SDS011;35209;51.050;13.678;2023-04-24T16:21:25;1.05;;;0.50;;
49340;SDS011;35209;51.050;13.678;2023-04-24T16:26:27;0.47;;;0.30;;
49340;SDS011;35209;51.050;13.678;2023-04-24T16:31:29;1.42;;;0.47;;
49340;SDS011;35209;51.050;13.678;2023-04-24T16:36:31;0.70;;;0.38;;
49340;SDS011;35209;51.050;13.678;2023-04-24T16:41:32;3.53;;;0.70;;
49340;SDS011;35209;51.050;13.678;2023-04-24T16:46:34;1.75;;;0.52;;
49340;SDS011;35209;51.050;13.678;2023-04-24T16:51:36;1.23;;;0.60;;
49340;SDS011;35209;51.050;13.678;2023-04-24T16:56:37;0.95;;;0.40;;
49340;SDS011;35209;51.050;13.678;2023-04-24T17:01:40;1.95;;;0.60;;
49340;SDS011;35209;51.050;13.678;2023-04-24T17:06:41;1.02;;;0.50;;
49340;SDS011;35209;51.050;13.678;2023-04-24T17:11:43;0.57;;;0.30;;
49340;SDS011;35209;51.050;13.678;2023-04-24T17:16:45;0.35;;;0.32;;
49340;SDS011;35209;51.050;13.678;2023-04-24T17:21:47;1.00;;;0.40;;
49340;SDS011;35209;51.050;13.678;2023-04-24T17:26:48;3.47;;;1.90;;
49340;SDS011;35209;51.050;13.678;2023-04-24T17:31:52;0.70;;;0.70;;
49340;SDS011;35209;51.050;13.678;2023-04-24T17:36:53;0.45;;;0.40;;
49340;SDS011;35209;51.050;13.678;2023-04-24T17:41:55;0.32;;;0.32;;
49340;SDS011;35209;51.050;13.678;2023-04-24T17:46:57;0.57;;;0.43;;
49340;SDS011;35209;51.050;13.678;2023-04-24T17:51:59;0.45;;;0.43;;
49340;SDS011;35209;51.050;13.678;2023-04-24T17:57:01;0.65;;;0.50;;
49340;SDS011;35209;51.050;13.678;2023-04-24T18:02:03;1.20;;;0.30;;
49340;SDS011;35209;51.050;13.678;2023-04-24T18:07:04;3.35;;;0.30;;
49340;SDS011;35209;51.050;13.678;2023-04-24T18:12:06;1.38;;;0.50;;
49340;SDS011;35209;51.050;13.678;2023-04-24T18:17:08;2.17;;;0.47;;
49340;SDS011;35209;51.050;13.678;2023-04-24T18:22:10;0.88;;;0.30;;
49340;SDS011;35209;51.050;13.678;2023-04-24T18:27:11;1.83;;;0.25;;
49340;SDS011;35209;51.050;13.678;2023-04-24T18:32:13;2.30;;;0.50;;
49340;SDS011;35209;51.050;13.678;2023-04-24T18:37:15;2.25;;;0.50;;
49340;SDS011;35209;51.050;13.678;2023-04-24T18:42:17;1.38;;;0.20;;
49340;SDS011;35209;51.050;13.678;2023-04-24T18:47:19;0.70;;;0.43;;
49340;SDS011;35209;51.050;13.678;2023-04-24T18:52:20;3.63;;;1.45;;
49340;SDS011;35209;51.050;13.678;2023-04-24T18:57:23;1.00;;;0.90;;
49340;SDS011;35209;51.050;13.678;2023-04-24T19:02:25;1.40;;;0.60;;
49340;SDS011;35209;51.050;13.678;2023-04-24T19:07:27;0.47;;;0.45;;
49340;SDS011;35209;51.050;13.678;2023-04-24T19:12:29;2.38;;;1.60;;
49340;SDS011;35209;51.050;13.678;2023-04-24T19:17:31;2.65;;;1.90;;
49340;SDS011;35209;51.050;13.678;2023-04-24T19:22:32;1.35;;;1.02;;
49340;SDS011;35209;51.050;13.678;2023-04-24T19:27:34;2.20;;;1.20;;
49340;SDS011;35209;51.050;13.678;2023-04-24T19:32:36;1.73;;;1.48;;
49340;SDS011;35209;51.050;13.678;2023-04-24T19:37:38;0.68;;;0.57;;
49340;SDS011;35209;51.050;13.678;2023-04-24T19:42:40;0.50;;;0.50;;
49340;SDS011;35209;51.050;13.678;2023-04-24T19:47:45;0.60;;;0.60;;
49340;SDS011;35209;51.050;13.678;2023-04-24T19:52:47;0.77;;;0.57;;
49340;SDS011;35209;51.050;13.678;2023-04-24T19:57:48;0.63;;;0.45;;
49340;SDS011;35209;51.050;13.678;2023-04-24T20:02:50;0.60;;;0.60;;
49340;SDS011;35209;51.050;13.678;2023-04-24T20:07:52;1.55;;;0.70;;
49340;SDS011;35209;51.050;13.678;2023-04-24T20:12:54;0.77;;;0.65;;
49340;SDS011;35209;51.050;13.678;2023-04-24T20:17:55;1.02;;;0.70;;
49340;SDS011;35209;51.050;13.678;2023-04-24T20:22:57;1.02;;;0.93;;
49340;SDS011;35209;51.050;13.678;2023-04-24T20:27:59;0.98;;;0.88;;
49340;SDS011;35209;51.050;13.678;2023-04-24T20:33:01;1.15;;;0.80;;
49340;SDS011;35209;51.050;13.678;2023-04-24T20:38:02;1.10;;;0.80;;
49340;SDS011;35209;51.050;13.678;2023-04-24T20:43:04;2.38;;;1.25;;
49340;SDS011;35209;51.050;13.678;2023-04-24T20:48:07;1.33;;;1.00;;
49340;SDS011;35209;51.050;13.678;2023-04-24T20:53:10;1.33;;;1.13;;
49340;SDS011;35209;51.050;13.678;2023-04-24T20:58:11;3.28;;;1.02;;
49340;SDS011;35209;51.050;13.678;2023-04-24T21:03:13;2.47;;;1.10;;
49340;SDS011;35209;51.050;13.678;2023-04-24T21:08:16;1.33;;;1.15;;
49340;SDS011;35209;51.050;13.678;2023-04-24T21:13:17;2.60;;;1.50;;
49340;SDS011;35209;51.050;13.678;2023-04-24T21:18:19;2.25;;;1.30;;
49340;SDS011;35209;51.050;13.678;2023-04-24T21:23:21;2.33;;;1.75;;
49340;SDS011;35209;51.050;13.678;2023-04-24T21:28:23;1.98;;;1.60;;
49340;SDS011;35209;51.050;13.678;2023-04-24T21:33:25;2.38;;;1.40;;
49340;SDS011;35209;51.050;13.678;2023-04-24T21:38:27;2.20;;;1.58;;
49340;SDS011;35209;51.050;13.678;2023-04-24T21:43:29;2.67;;;1.60;;
49340;SDS011;35209;51.050;13.678;2023-04-24T21:48:45;1.33;;;1.10;;
49340;SDS011;35209;51.050;13.678;2023-04-24T21:53:46;3.85;;;1.50;;
49340;SDS011;35209;51.050;13.678;2023-04-24T21:58:49;1.85;;;1.58;;
49340;SDS011;35209;51.050;13.678;2023-04-24T22:03:51;2.15;;;1.67;;
49340;SDS011;35209;51.050;13.678;2023-04-24T22:08:53;1.58;;;1.48;;
49340;SDS011;35209;51.050;13.678;2023-04-24T22:13:55;2.03;;;1.35;;
49340;SDS011;35209;51.050;13.678;2023-04-24T22:18:57;2.72;;;1.70;;
49340;SDS011;35209;51.050;13.678;2023-04-24T22:23:58;2.42;;;1.40;;
49340;SDS011;35209;51.050;13.678;2023-04-24T22:29:00;2.08;;;1.77;;
49340;SDS011;35209;51.050;13.678;2023-04-24T22:34:02;1.40;;;1.30;;
49340;SDS011;35209;51.050;13.678;2023-04-24T22:39:04;2.88;;;1.75;;
49340;SDS011;35209;51.050;13.678;2023-04-24T22:44:05;2.22;;;1.13;;
49340;SDS011;35209;51.050;13.678;2023-04-24T22:49:07;3.22;;;1.48;;
49340;SDS011;35209;51.050;13.678;2023-04-24T22:54:10;2.60;;;1.77;;
49340;SDS011;35209;51.050;13.678;2023-04-24T22:59:12;1.98;;;1.38;;
49340;SDS011;35209;51.050;13.678;2023-04-24T23:04:13;1.80;;;1.58;;
49340;SDS011;35209;51.050;13.678;2023-04-24T23:09:15;3.20;;;1.92;;
49340;SDS011;35209;51.050;13.678;2023-04-24T23:14:17;3.60;;;1.80;;
49340;SDS011;35209;51.050;13.678;2023-04-24T23:19:19;2.35;;;1.80;;
49340;SDS011;35209;51.050;13.678;2023-04-24T23:24:20;3.80;;;1.83;;
49340;SDS011;35209;51.050;13.678;2023-04-24T23:29:22;2.47;;;2.13;;
49340;SDS011;35209;51.050;13.678;2023-04-24T23:34:26;2.65;;;2.30;;
49340;SDS011;35209;51.050;13.678;2023-04-24T23:39:27;2.88;;;2.55;;
49340;SDS011;35209;51.050;13.678;2023-04-24T23:44:29;2.80;;;2.50;;
49340;SDS011;35209;51.050;13.678;2023-04-24T23:49:31;3.63;;;2.40;;
49340;SDS011;35209;51.050;13.678;2023-04-24T23:54:32;3.42;;;2.40;;
49340;SDS011;35209;51.050;13.678;2023-04-24T23:59:35;3.35;;;2.45;;
